Time;durP1;ratioP1;P1;durP2;ratioP2;P2;SDS_P1;SDS_P2;PMS_P1;PMS_P2;Temp;Humidity;BMP_temperature;BMP_pressure;BME280_temperature;BME280_humidity;BME280_pressure;Samples;Min_cycle;Max_cycle;Signal;HPM_P1;HPM_P2
2021/06/07 00:01:36;;;;;;;5.20;1.93;;;14.40;99.90;;;;;;5055253;28;20196;-74
2021/06/07 00:04:04;;;;;;;2.03;1.73;;;14.60;99.90;;;;;;5054089;28;20284;-74
2021/06/07 00:06:30;;;;;;;5.17;1.53;;;14.50;99.90;;;;;;5055400;28;20231;-74
2021/06/07 00:08:58;;;;;;;2.50;1.87;;;14.50;99.90;;;;;;5055113;28;20196;-74
2021/06/07 00:11:25;;;;;;;2.17;1.60;;;14.30;99.90;;;;;;5055222;28;20243;-74
2021/06/07 00:13:53;;;;;;;3.00;1.50;;;14.30;99.90;;;;;;5053238;28;20230;-74
2021/06/07 00:16:20;;;;;;;6.77;2.10;;;14.40;99.90;;;;;;5042767;28;20216;-74
2021/06/07 00:18:47;;;;;;;5.60;2.03;;;14.50;99.90;;;;;;5054471;28;20192;-73
2021/06/07 00:21:17;;;;;;;3.00;1.53;;;14.50;99.90;;;;;;5054388;28;20596;-74
2021/06/07 00:23:44;;;;;;;3.60;1.90;;;14.40;99.90;;;;;;5050219;28;20226;-74
2021/06/07 00:26:12;;;;;;;7.83;2.03;;;14.40;99.90;;;;;;5054516;28;20196;-74
2021/06/07 00:28:38;;;;;;;4.00;1.83;;;14.30;99.90;;;;;;5051006;28;20196;-74
2021/06/07 00:31:07;;;;;;;3.40;1.60;;;14.10;99.90;;;;;;5050207;28;20311;-74
2021/06/07 00:33:33;;;;;;;4.57;1.50;;;13.90;99.90;;;;;;5049694;28;20196;-73
2021/06/07 00:36:01;;;;;;;2.30;1.80;;;13.80;99.90;;;;;;5051296;28;20239;-74
2021/06/07 00:38:28;;;;;;;1.87;1.47;;;13.70;99.90;;;;;;5050070;28;20298;-73
2021/06/07 00:40:55;;;;;;;4.00;1.70;;;13.70;99.90;;;;;;5050492;28;20274;-73
2021/06/07 00:43:22;;;;;;;4.77;1.60;;;13.70;99.90;;;;;;5049883;28;20662;-73
2021/06/07 00:45:49;;;;;;;3.40;1.63;;;13.70;99.90;;;;;;5050290;28;20192;-74
2021/06/07 00:48:17;;;;;;;3.70;1.73;;;13.70;99.90;;;;;;5049954;28;20211;-73
2021/06/07 00:50:47;;;;;;;3.27;1.80;;;13.70;99.90;;;;;;5049583;28;20313;-74
2021/06/07 00:53:17;;;;;;;4.03;1.60;;;13.80;99.90;;;;;;5051004;28;20269;-74
2021/06/07 00:55:48;;;;;;;1.87;1.50;;;13.70;99.90;;;;;;5049599;28;20196;-74
2021/06/07 00:58:16;;;;;;;2.90;2.00;;;13.60;99.90;;;;;;5050001;28;20194;-74
2021/06/07 01:00:44;;;;;;;3.67;1.70;;;13.60;99.90;;;;;;5051214;28;20205;-74
2021/06/07 01:03:12;;;;;;;4.23;1.73;;;13.50;99.90;;;;;;5051877;28;20277;-75
2021/06/07 01:05:38;;;;;;;4.77;1.70;;;13.50;99.90;;;;;;5049877;28;20254;-73
2021/06/07 01:08:06;;;;;;;3.10;1.70;;;13.50;99.90;;;;;;5050146;28;20266;-73
2021/06/07 01:10:34;;;;;;;4.10;1.77;;;13.40;99.90;;;;;;5051657;28;20256;-74
2021/06/07 01:13:01;;;;;;;3.00;2.00;;;13.40;99.90;;;;;;5051678;28;20707;-74
2021/06/07 01:15:28;;;;;;;4.83;1.73;;;13.40;99.90;;;;;;5051968;28;20228;-74
2021/06/07 01:17:56;;;;;;;2.33;1.80;;;13.30;99.90;;;;;;5049418;28;20214;-74
2021/06/07 01:20:23;;;;;;;3.30;1.50;;;13.20;99.90;;;;;;5049793;28;20284;-74
2021/06/07 01:22:52;;;;;;;3.83;1.80;;;13.20;99.90;;;;;;5050513;28;20283;-74
2021/06/07 01:25:22;;;;;;;4.30;2.00;;;13.10;99.90;;;;;;5050519;28;20224;-74
2021/06/07 01:27:48;;;;;;;6.07;1.80;;;13.20;99.90;;;;;;5050240;28;20295;-74
2021/06/07 01:30:18;;;;;;;3.60;2.10;;;13.30;99.90;;;;;;5050914;28;20195;-73
2021/06/07 01:32:45;;;;;;;12.60;2.00;;;13.20;99.90;;;;;;5050045;28;20203;-73
2021/06/07 01:35:13;;;;;;;1.93;1.73;;;13.20;99.90;;;;;;5050177;28;20283;-74
2021/06/07 01:37:40;;;;;;;3.77;1.77;;;13.20;99.90;;;;;;5051308;28;20288;-74
2021/06/07 01:40:10;;;;;;;4.43;2.80;;;13.20;99.90;;;;;;5051815;28;20242;-74
2021/06/07 01:42:37;;;;;;;3.77;1.73;;;13.10;99.90;;;;;;5049526;28;20643;-73
2021/06/07 01:45:06;;;;;;;3.03;1.93;;;13.00;99.90;;;;;;5050184;28;20288;-73
2021/06/07 01:47:33;;;;;;;3.93;1.90;;;13.00;99.90;;;;;;5050939;28;20718;-75
2021/06/07 01:49:59;;;;;;;5.80;2.00;;;12.90;99.90;;;;;;5049656;28;20199;-73
2021/06/07 01:52:26;;;;;;;5.27;2.40;;;12.90;99.90;;;;;;5050676;28;20240;-73
2021/06/07 01:54:52;;;;;;;2.13;1.90;;;12.90;99.90;;;;;;5050398;28;20261;-74
2021/06/07 01:57:20;;;;;;;3.90;1.90;;;12.90;99.90;;;;;;5049817;28;20211;-75
2021/06/07 01:59:46;;;;;;;3.13;1.97;;;12.80;99.90;;;;;;5051402;28;20202;-74
2021/06/07 02:02:12;;;;;;;5.97;2.10;;;12.80;99.90;;;;;;5052072;28;20556;-74
2021/06/07 02:04:39;;;;;;;4.80;2.30;;;13.00;99.90;;;;;;5053221;28;20290;-74
2021/06/07 02:07:05;;;;;;;3.07;2.10;;;12.90;99.90;;;;;;5051041;28;20208;-74
2021/06/07 02:09:32;;;;;;;3.13;1.97;;;12.80;99.90;;;;;;5051791;28;20202;-73
2021/06/07 02:11:58;;;;;;;2.33;2.00;;;12.90;99.90;;;;;;5048933;28;20314;-74
2021/06/07 02:14:26;;;;;;;3.87;2.07;;;12.90;99.90;;;;;;5052390;28;20279;-74
2021/06/07 02:16:52;;;;;;;5.27;2.27;;;13.00;99.90;;;;;;5053038;28;20282;-74
2021/06/07 02:19:19;;;;;;;4.00;2.20;;;12.80;99.90;;;;;;5053118;28;20231;-74
2021/06/07 02:21:45;;;;;;;4.27;2.23;;;12.60;99.90;;;;;;5052961;28;20346;-74
2021/06/07 02:24:12;;;;;;;4.30;2.37;;;12.50;99.90;;;;;;5052875;28;20279;-74
2021/06/07 02:26:39;;;;;;;2.83;2.23;;;12.60;99.90;;;;;;5052956;28;20219;-73
2021/06/07 02:29:07;;;;;;;6.50;2.60;;;12.70;99.90;;;;;;5052417;28;20192;-74
2021/06/07 02:31:38;;;;;;;4.43;2.73;;;12.90;99.90;;;;;;5052904;28;20246;-74
2021/06/07 02:34:06;;;;;;;3.73;3.17;;;13.00;99.90;;;;;;5052529;28;20199;-74
2021/06/07 02:36:36;;;;;;;4.07;2.33;;;13.00;99.90;;;;;;5050080;28;20299;-74
2021/06/07 02:39:05;;;;;;;5.57;3.43;;;13.00;99.90;;;;;;5052815;28;20227;-74
2021/06/07 02:41:32;;;;;;;6.47;2.83;;;12.90;99.90;;;;;;5053199;28;20258;-74
2021/06/07 02:43:58;;;;;;;3.60;2.63;;;12.80;99.90;;;;;;5043825;28;20228;-74
2021/06/07 02:46:24;;;;;;;3.47;2.60;;;12.90;99.90;;;;;;5046263;28;20278;-74
2021/06/07 02:48:52;;;;;;;3.73;2.70;;;12.80;99.90;;;;;;5052939;28;20573;-74
2021/06/07 02:51:19;;;;;;;4.43;2.70;;;12.80;99.90;;;;;;5052697;28;20625;-75
2021/06/07 02:53:48;;;;;;;3.97;2.90;;;12.60;99.90;;;;;;5052399;28;20199;-74
2021/06/07 02:56:14;;;;;;;4.87;3.03;;;12.50;99.90;;;;;;5052717;28;20585;-75
2021/06/07 02:58:40;;;;;;;8.87;3.00;;;12.30;99.90;;;;;;5052330;28;20712;-75
2021/06/07 03:01:09;;;;;;;6.63;3.00;;;12.40;99.90;;;;;;5052575;28;20235;-74
2021/06/07 03:03:36;;;;;;;4.07;2.67;;;12.40;99.90;;;;;;5052219;28;20228;-74
2021/06/07 03:06:04;;;;;;;4.43;3.10;;;12.40;99.90;;;;;;5052528;28;20191;-75
2021/06/07 03:08:33;;;;;;;5.03;3.07;;;12.30;99.90;;;;;;5052654;28;20622;-75
2021/06/07 03:11:02;;;;;;;5.27;2.77;;;12.30;99.90;;;;;;5052623;28;20272;-75
2021/06/07 03:13:28;;;;;;;5.63;2.97;;;12.20;99.90;;;;;;5053275;28;20200;-75
2021/06/07 03:15:57;;;;;;;4.43;3.20;;;12.20;99.90;;;;;;5052278;28;20192;-75
2021/06/07 03:18:23;;;;;;;5.13;3.10;;;12.30;99.90;;;;;;5052505;28;20196;-74
2021/06/07 03:20:50;;;;;;;4.13;3.10;;;12.40;99.90;;;;;;5052008;28;20299;-74
2021/06/07 03:23:20;;;;;;;7.10;3.40;;;12.50;99.90;;;;;;5052428;28;20198;-75
2021/06/07 03:25:48;;;;;;;4.20;3.50;;;12.50;99.90;;;;;;5053116;28;20290;-74
2021/06/07 03:28:16;;;;;;;4.40;3.20;;;12.50;99.90;;;;;;5053115;28;20279;-75
2021/06/07 03:30:43;;;;;;;7.50;3.20;;;12.40;99.90;;;;;;5051629;28;20223;-75
2021/06/07 03:33:11;;;;;;;8.73;3.17;;;12.40;99.90;;;;;;5052174;28;20275;-74
2021/06/07 03:35:39;;;;;;;5.00;3.63;;;12.40;99.90;;;;;;5052941;28;20642;-74
2021/06/07 03:38:05;;;;;;;3.53;3.10;;;12.40;99.90;;;;;;5051447;28;20245;-75
2021/06/07 03:40:36;;;;;;;5.60;3.40;;;12.40;99.90;;;;;;5051610;28;20230;-74
2021/06/07 03:43:03;;;;;;;4.23;3.20;;;12.40;99.90;;;;;;5051676;28;20296;-75
2021/06/07 03:45:29;;;;;;;4.97;3.53;;;12.40;99.90;;;;;;5051949;28;20216;-75
2021/06/07 03:47:56;;;;;;;6.70;3.87;;;12.50;99.90;;;;;;5052085;28;20190;-75
2021/06/07 03:50:26;;;;;;;6.37;3.90;;;12.50;99.90;;;;;;5053588;28;20198;-75
2021/06/07 03:52:53;;;;;;;4.70;3.57;;;12.70;99.90;;;;;;5051521;28;20207;-75
2021/06/07 03:55:22;;;;;;;5.50;3.50;;;12.90;99.90;;;;;;5052314;28;20192;-75
2021/06/07 03:57:51;;;;;;;5.73;3.50;;;13.00;99.90;;;;;;5051818;28;20283;-75
2021/06/07 04:00:20;;;;;;;7.97;3.47;;;12.90;99.90;;;;;;5050819;28;20307;-74
2021/06/07 04:02:47;;;;;;;6.70;3.60;;;13.00;99.90;;;;;;5051803;28;20279;-75
2021/06/07 04:05:14;;;;;;;6.33;3.40;;;13.00;99.90;;;;;;5051033;28;20192;-75
2021/06/07 04:07:42;;;;;;;6.80;3.40;;;12.90;99.90;;;;;;5051423;28;20199;-74
2021/06/07 04:10:10;;;;;;;7.50;3.43;;;12.80;99.90;;;;;;5051549;28;20205;-74
2021/06/07 04:12:37;;;;;;;6.63;3.47;;;12.80;99.90;;;;;;5051776;28;20230;-75
2021/06/07 04:15:07;;;;;;;6.63;3.70;;;12.70;99.90;;;;;;5050934;28;20286;-75
2021/06/07 04:17:34;;;;;;;4.50;3.37;;;12.70;99.90;;;;;;5051221;28;20208;-75
2021/06/07 04:20:00;;;;;;;4.70;3.80;;;12.70;99.90;;;;;;5051447;28;20322;-75
2021/06/07 04:22:27;;;;;;;5.07;3.57;;;12.70;99.90;;;;;;5051450;28;20257;-74
2021/06/07 04:24:53;;;;;;;5.20;3.47;;;12.90;99.90;;;;;;5051580;28;20196;-75
2021/06/07 04:27:20;;;;;;;6.23;3.80;;;12.80;99.90;;;;;;5050940;28;20690;-74
2021/06/07 04:29:48;;;;;;;7.17;3.70;;;12.90;99.90;;;;;;5050368;28;20554;-75
2021/06/07 04:32:16;;;;;;;5.37;4.07;;;12.90;99.90;;;;;;5052587;28;20212;-74
2021/06/07 04:34:42;;;;;;;4.43;3.57;;;13.00;99.90;;;;;;5051259;28;20220;-75
2021/06/07 04:37:08;;;;;;;6.13;4.03;;;13.00;99.90;;;;;;5053422;28;20196;-75
2021/06/07 04:39:35;;;;;;;5.60;3.80;;;13.00;99.90;;;;;;5053393;28;20287;-75
2021/06/07 04:42:02;;;;;;;6.87;3.80;;;13.00;99.90;;;;;;5054079;28;20588;-75
2021/06/07 04:44:28;;;;;;;5.10;3.93;;;13.00;99.90;;;;;;5056147;28;20227;-74
2021/06/07 04:46:55;;;;;;;6.83;4.00;;;13.20;99.90;;;;;;5056015;28;20192;-75
2021/06/07 04:49:23;;;;;;;4.73;3.97;;;13.20;99.90;;;;;;5055528;28;20247;-75
2021/06/07 04:51:49;;;;;;;6.27;3.70;;;13.40;99.90;;;;;;5052391;28;20310;-74
2021/06/07 04:54:16;;;;;;;5.60;4.00;;;13.50;99.90;;;;;;5054319;28;20298;-75
2021/06/07 04:56:42;;;;;;;4.80;4.00;;;13.80;99.90;;;;;;5052569;28;20232;-75
2021/06/07 04:59:08;;;;;;;5.80;3.97;;;14.00;99.90;;;;;;5052127;28;20283;-75
2021/06/07 05:01:35;;;;;;;5.73;4.20;;;13.90;99.90;;;;;;5051141;28;20247;-74
2021/06/07 05:04:01;;;;;;;7.97;4.13;;;13.90;99.90;;;;;;5051695;28;20284;-76
2021/06/07 05:06:29;;;;;;;8.20;4.30;;;14.00;99.90;;;;;;5051786;28;20661;-75
2021/06/07 05:08:55;;;;;;;9.47;4.10;;;14.10;99.90;;;;;;5051716;28;20295;-75
2021/06/07 05:11:22;;;;;;;4.33;3.93;;;15.00;99.90;;;;;;5052998;28;20693;-74
2021/06/07 05:13:48;;;;;;;6.83;4.20;;;15.50;99.90;;;;;;5051541;28;20318;-75
2021/06/07 05:16:15;;;;;;;6.30;4.17;;;15.30;99.90;;;;;;5051095;28;20279;-76
2021/06/07 05:18:42;;;;;;;9.23;3.90;;;15.40;99.90;;;;;;5045091;28;20220;-76
2021/06/07 05:21:08;;;;;;;5.00;4.10;;;15.60;99.90;;;;;;5045631;28;20257;-75
2021/06/07 05:23:36;;;;;;;7.50;4.47;;;16.00;99.90;;;;;;5038862;28;20193;-76
2021/06/07 05:26:02;;;;;;;6.10;4.70;;;16.60;99.90;;;;;;5041518;28;20194;-76
2021/06/07 05:28:29;;;;;;;7.30;4.20;;;17.70;99.90;;;;;;5035843;28;20574;-76
2021/06/07 05:30:55;;;;;;;7.30;4.60;;;18.80;99.90;;;;;;5043937;28;20232;-75
2021/06/07 05:33:23;;;;;;;6.97;4.53;;;20.00;99.90;;;;;;5042101;28;20280;-75
2021/06/07 05:35:51;;;;;;;7.07;4.90;;;21.10;99.90;;;;;;5045606;28;20200;-76
2021/06/07 05:38:19;;;;;;;9.70;5.43;;;22.10;99.90;;;;;;5043989;28;20254;-75
2021/06/07 05:40:48;;;;;;;8.90;5.20;;;22.80;99.90;;;;;;5035433;28;20789;-77
2021/06/07 05:43:17;;;;;;;6.50;4.80;;;23.40;99.90;;;;;;5037789;28;20327;-76
2021/06/07 05:45:44;;;;;;;6.38;4.72;;;22.40;99.90;;;;;;5045665;28;20188;-76
2021/06/07 05:48:11;;;;;;;6.28;5.13;;;21.90;99.90;;;;;;5052995;28;20286;-76
2021/06/07 05:50:39;;;;;;;8.60;5.70;;;22.30;99.90;;;;;;5045861;28;20228;-76
2021/06/07 05:53:06;;;;;;;6.28;5.57;;;22.50;99.90;;;;;;5047311;28;20196;-76
2021/06/07 05:55:35;;;;;;;7.68;5.78;;;22.40;99.90;;;;;;5048106;28;20705;-75
2021/06/07 05:58:06;;;;;;;8.18;5.60;;;23.30;99.90;;;;;;5051321;28;20196;-75
2021/06/07 06:00:35;;;;;;;11.40;5.63;;;24.10;99.90;;;;;;5049740;28;20215;-75
2021/06/07 06:03:01;;;;;;;11.35;5.97;;;24.00;99.90;;;;;;5048485;28;20281;-75
2021/06/07 06:05:28;;;;;;;13.52;6.35;;;24.00;99.90;;;;;;5048247;28;20242;-75
2021/06/07 06:07:55;;;;;;;9.73;6.00;;;24.20;99.90;;;;;;5047033;28;20288;-74
2021/06/07 06:10:22;;;;;;;8.55;5.78;;;24.60;99.90;;;;;;5048339;28;20219;-74
2021/06/07 06:12:48;;;;;;;9.60;5.75;;;25.30;99.90;;;;;;5051106;28;20240;-75
2021/06/07 06:15:19;;;;;;;10.45;5.50;;;25.70;99.90;;;;;;5048371;28;20681;-75
2021/06/07 06:17:46;;;;;;;12.13;5.90;;;26.10;99.90;;;;;;5050011;28;20192;-75
2021/06/07 06:20:14;;;;;;;9.90;5.90;;;26.20;99.90;;;;;;5048732;28;20196;-75
2021/06/07 06:22:41;;;;;;;12.18;6.30;;;27.50;99.90;;;;;;5050484;28;20664;-74
2021/06/07 06:25:09;;;;;;;12.30;6.60;;;28.50;99.90;;;;;;5049492;28;20333;-74
2021/06/07 06:27:37;;;;;;;13.07;5.95;;;28.20;99.90;;;;;;5050629;28;20192;-74
2021/06/07 06:30:04;;;;;;;11.52;6.32;;;27.70;99.90;;;;;;5052125;28;20247;-74
2021/06/07 06:32:32;;;;;;;9.52;5.68;;;28.10;99.90;;;;;;5052031;28;20307;-74
2021/06/07 06:34:58;;;;;;;11.38;5.88;;;27.50;99.90;;;;;;5052505;28;20394;-74
2021/06/07 06:37:25;;;;;;;8.32;5.65;;;27.50;99.90;;;;;;5051387;28;20188;-74
2021/06/07 06:39:51;;;;;;;11.98;6.47;;;28.10;99.90;;;;;;5050608;28;20196;-74
2021/06/07 06:42:18;;;;;;;8.18;6.03;;;27.70;99.90;;;;;;5052317;28;20283;-74
2021/06/07 06:44:44;;;;;;;17.90;6.22;;;27.20;99.90;;;;;;5053016;28;20662;-74
2021/06/07 06:47:11;;;;;;;8.82;6.43;;;27.90;99.90;;;;;;5051943;28;20618;-74
2021/06/07 06:49:38;;;;;;;9.70;6.10;;;28.40;99.90;;;;;;5051780;28;20311;-74
2021/06/07 06:52:05;;;;;;;11.75;5.72;;;28.50;99.90;;;;;;5052374;28;20315;-74
2021/06/07 06:54:31;;;;;;;11.13;5.95;;;27.30;99.90;;;;;;5052825;28;20231;-74
2021/06/07 06:56:58;;;;;;;8.65;5.10;;;26.70;99.90;;;;;;5052659;28;20282;-74
2021/06/07 06:59:24;;;;;;;5.82;4.90;;;27.10;99.90;;;;;;5052245;28;20625;-74
2021/06/07 07:01:51;;;;;;;8.05;4.97;;;27.10;99.90;;;;;;5048011;28;20202;-75
2021/06/07 07:04:17;;;;;;;9.15;5.82;;;27.70;99.90;;;;;;5051799;28;20290;-74
2021/06/07 07:06:45;;;;;;;8.38;5.70;;;27.40;99.90;;;;;;5051771;28;20223;-75
2021/06/07 07:09:11;;;;;;;6.32;5.28;;;28.30;99.90;;;;;;5053442;28;20188;-75
2021/06/07 07:11:38;;;;;;;8.45;5.88;;;28.50;99.90;;;;;;5051904;28;20243;-74
2021/06/07 07:14:04;;;;;;;7.30;5.30;;;28.30;99.90;;;;;;5052271;28;20291;-74
2021/06/07 07:16:31;;;;;;;6.32;5.65;;;27.70;99.90;;;;;;5052503;28;20202;-75
2021/06/07 07:18:57;;;;;;;8.15;5.57;;;28.40;99.90;;;;;;5052177;28;20192;-74
2021/06/07 07:21:23;;;;;;;5.85;5.15;;;28.20;99.90;;;;;;5051776;28;20334;-74
2021/06/07 07:23:51;;;;;;;6.95;5.40;;;28.30;99.90;;;;;;5052190;28;20225;-74
2021/06/07 07:26:18;;;;;;;8.25;5.05;;;28.60;99.90;;;;;;5052583;28;20291;-75
2021/06/07 07:28:44;;;;;;;8.52;5.20;;;28.20;99.90;;;;;;5052430;28;20717;-75
2021/06/07 07:31:11;;;;;;;5.60;5.10;;;28.60;99.90;;;;;;5052704;28;20310;-75
2021/06/07 07:33:38;;;;;;;8.27;5.10;;;27.90;99.90;;;;;;5053448;28;20643;-75
2021/06/07 07:36:08;;;;;;;5.88;5.03;;;27.70;99.90;;;;;;5053576;28;20254;-75
2021/06/07 07:38:36;;;;;;;5.80;5.20;;;27.10;99.90;;;;;;5053698;28;20200;-75
2021/06/07 07:41:13;;;;;;;10.18;5.70;;;28.40;99.90;;;;;;5045696;28;20197;-75
2021/06/07 07:43:42;;;;;;;7.18;5.13;;;29.10;99.90;;;;;;5053561;28;20192;-75
2021/06/07 07:46:09;;;;;;;6.03;5.43;;;29.80;99.90;;;;;;5057922;28;20200;-75
2021/06/07 07:48:36;;;;;;;7.30;5.00;;;30.60;99.90;;;;;;5061518;28;20197;-75
2021/06/07 07:51:05;;;;;;;8.20;5.38;;;29.10;99.90;;;;;;5071740;28;20219;-75
2021/06/07 07:53:31;;;;;;;10.80;5.57;;;28.40;99.90;;;;;;5056867;28;20196;-75
2021/06/07 07:55:59;;;;;;;5.82;5.30;;;29.70;99.90;;;;;;5072574;28;20204;-75
2021/06/07 07:58:27;;;;;;;7.80;4.68;;;29.50;99.90;;;;;;5070645;28;20193;-75
2021/06/07 08:00:55;;;;;;;6.45;4.80;;;30.00;99.90;;;;;;5069999;28;20184;-75
2021/06/07 08:03:22;;;;;;;5.13;4.45;;;29.80;99.90;;;;;;5066592;28;20192;-75
2021/06/07 08:05:49;;;;;;;7.85;5.00;;;29.40;99.90;;;;;;5057640;28;20724;-76
2021/06/07 08:08:18;;;;;;;5.60;4.50;;;29.30;99.90;;;;;;5053318;28;20188;-75
2021/06/07 08:10:47;;;;;;;6.88;5.10;;;28.80;99.90;;;;;;5052230;28;20196;-75
2021/06/07 08:13:15;;;;;;;5.07;4.05;;;29.00;99.90;;;;;;5054556;28;20227;-75
2021/06/07 08:15:46;;;;;;;7.07;4.40;;;29.30;99.90;;;;;;5055237;28;20523;-75
2021/06/07 08:18:12;;;;;;;5.47;3.97;;;30.20;99.90;;;;;;5055083;28;20189;-75
2021/06/07 08:20:41;;;;;;;4.47;4.07;;;30.40;99.90;;;;;;5055247;28;20531;-74
2021/06/07 08:23:07;;;;;;;5.40;4.35;;;29.70;99.90;;;;;;5055135;28;20212;-75
2021/06/07 08:25:36;;;;;;;6.30;4.68;;;28.60;99.90;;;;;;5054570;28;20199;-74
2021/06/07 08:28:05;;;;;;;7.95;4.25;;;28.10;99.90;;;;;;5054818;28;20216;-75
2021/06/07 08:30:34;;;;;;;4.97;4.00;;;29.10;99.90;;;;;;5055211;28;20199;-75
2021/06/07 08:33:03;;;;;;;6.35;4.80;;;28.80;99.90;;;;;;5055619;28;20224;-76
2021/06/07 08:35:29;;;;;;;5.70;5.03;;;28.40;99.90;;;;;;5054711;28;20208;-75
2021/06/07 08:37:56;;;;;;;5.50;4.82;;;28.10;99.90;;;;;;5054698;28;20300;-75
2021/06/07 08:40:24;;;;;;;5.15;4.00;;;26.50;99.90;;;;;;5054564;28;20357;-75
2021/06/07 08:42:50;;;;;;;6.15;4.55;;;27.20;99.90;;;;;;5054525;28;20204;-75
2021/06/07 08:45:19;;;;;;;6.55;4.45;;;27.10;99.90;;;;;;5054980;28;20192;-74
2021/06/07 08:47:47;;;;;;;5.57;4.82;;;26.40;99.90;;;;;;5055015;28;20521;-74
2021/06/07 08:50:23;;;;;;;4.80;4.30;;;27.30;99.90;;;;;;5054359;28;20238;-75
2021/06/07 08:52:49;;;;;;;7.78;5.47;;;28.00;99.90;;;;;;5054268;28;20223;-74
2021/06/07 08:55:19;;;;;;;5.70;5.20;;;28.30;99.90;;;;;;5054824;28;20184;-75
2021/06/07 08:57:47;;;;;;;5.88;5.25;;;28.20;99.90;;;;;;5054953;28;20206;-75
2021/06/07 09:00:16;;;;;;;6.10;4.60;;;29.30;99.90;;;;;;5054607;28;20211;-75
2021/06/07 09:02:43;;;;;;;6.28;4.90;;;30.20;99.90;;;;;;5054541;28;20207;-74
2021/06/07 09:05:11;;;;;;;6.90;5.00;;;30.60;99.90;;;;;;5054640;28;20228;-74
2021/06/07 09:07:53;;;;;;;4.97;3.10;;;30.50;99.90;;;;;;5054827;28;20196;-75
2021/06/07 09:10:21;;;;;;;4.88;3.50;;;29.90;99.90;;;;;;5053783;28;20588;-75
2021/06/07 09:12:52;;;;;;;5.03;4.40;;;29.30;99.90;;;;;;5054822;28;20287;-75
2021/06/07 09:15:28;;;;;;;6.65;4.28;;;29.20;99.90;;;;;;5054109;28;20176;-75
2021/06/07 09:17:55;;;;;;;5.28;4.30;;;29.60;99.90;;;;;;5054516;28;20223;-75
2021/06/07 09:20:26;;;;;;;4.70;4.20;;;29.50;99.90;;;;;;5053338;28;20191;-75
2021/06/07 09:22:58;;;;;;;9.20;5.40;;;30.10;99.90;;;;;;5054082;28;20199;-75
2021/06/07 09:25:33;;;;;;;6.55;5.13;;;29.40;99.90;;;;;;5053977;28;20253;-75
2021/06/07 09:28:06;;;;;;;7.45;5.35;;;29.60;99.90;;;;;;5053671;28;20602;-75
2021/06/07 09:30:42;;;;;;;6.30;4.50;;;30.60;99.90;;;;;;5053645;28;20215;-75
2021/06/07 09:33:22;;;;;;;6.45;5.15;;;31.20;99.90;;;;;;5053790;28;20224;-76
2021/06/07 09:36:11;;;;;;;7.93;4.68;;;29.70;99.90;;;;;;5053682;28;20191;-75
2021/06/07 09:39:19;;;;;;;5.35;4.50;;;29.60;99.90;;;;;;5053354;28;20582;-75
2021/06/07 09:41:58;;;;;;;6.72;4.20;;;28.80;99.90;;;;;;5053601;28;20253;-75
2021/06/07 09:44:31;;;;;;;4.72;4.10;;;28.80;99.90;;;;;;5053283;28;20551;-75
2021/06/07 09:47:28;;;;;;;7.05;5.10;;;29.20;99.90;;;;;;5054133;28;20192;-75
2021/06/07 09:49:58;;;;;;;6.03;3.83;;;28.30;99.90;;;;;;5053230;28;20242;-74
2021/06/07 09:52:31;;;;;;;4.95;3.78;;;28.80;99.90;;;;;;5053411;28;20255;-75
2021/06/07 09:55:11;;;;;;;5.57;3.38;;;28.30;99.90;;;;;;5053142;28;20518;-75
2021/06/07 09:57:54;;;;;;;5.25;2.75;;;28.30;99.90;;;;;;5053196;28;20204;-75
2021/06/07 10:00:44;;;;;;;4.45;2.60;;;28.90;99.90;;;;;;5053099;28;20185;-75
2021/06/07 10:03:23;;;;;;;4.10;2.70;;;28.60;99.90;;;;;;5052775;28;20200;-74
2021/06/07 10:05:56;;;;;;;3.03;2.70;;;27.40;99.90;;;;;;5052743;28;20557;-75
2021/06/07 10:08:40;;;;;;;4.07;2.42;;;26.30;99.90;;;;;;5052995;28;20180;-75
2021/06/07 10:11:18;;;;;;;2.22;2.03;;;26.60;99.90;;;;;;5050740;28;20544;-74
2021/06/07 10:14:05;;;;;;;3.72;3.03;;;26.70;99.90;;;;;;5053260;28;20192;-75
2021/06/07 10:16:34;;;;;;;7.43;3.35;;;26.30;99.90;;;;;;5053054;28;20180;-75
2021/06/07 10:19:06;;;;;;;5.55;3.15;;;27.20;99.90;;;;;;5052693;28;20200;-75
2021/06/07 10:21:34;;;;;;;3.92;2.40;;;28.30;99.90;;;;;;5052887;28;20199;-75
2021/06/07 10:24:04;;;;;;;3.80;2.15;;;29.00;99.90;;;;;;5052294;28;20192;-74
2021/06/07 10:26:35;;;;;;;3.50;2.80;;;28.10;99.90;;;;;;5052296;28;20561;-74
2021/06/07 10:29:09;;;;;;;4.30;2.63;;;27.20;99.90;;;;;;5052943;28;20184;-74
2021/06/07 10:31:40;;;;;;;5.10;2.65;;;26.80;99.90;;;;;;5052740;28;20224;-74
2021/06/07 10:34:17;;;;;;;2.78;2.30;;;26.40;99.90;;;;;;5052328;28;20600;-75
2021/06/07 10:36:45;;;;;;;3.33;2.60;;;26.90;99.90;;;;;;5050964;28;20192;-74
2021/06/07 10:39:29;;;;;;;2.30;2.10;;;27.60;99.90;;;;;;5051580;28;20560;-74
2021/06/07 10:42:19;;;;;;;2.65;2.40;;;28.00;99.90;;;;;;5052197;28;20229;-75
2021/06/07 10:44:56;;;;;;;2.92;1.80;;;28.20;99.90;;;;;;5052554;28;20203;-75
2021/06/07 10:47:27;;;;;;;4.60;2.17;;;27.50;99.90;;;;;;5052523;28;20638;-75
2021/06/07 10:50:02;;;;;;;4.63;2.53;;;27.00;99.90;;;;;;5052306;28;20261;-74
2021/06/07 10:52:40;;;;;;;3.45;2.30;;;27.10;99.90;;;;;;5052859;28;20598;-74
2021/06/07 10:55:10;;;;;;;4.82;2.90;;;27.10;99.90;;;;;;5052772;28;20188;-74
2021/06/07 10:57:40;;;;;;;3.03;2.47;;;27.80;99.90;;;;;;5052431;28;20593;-75
2021/06/07 11:00:17;;;;;;;6.95;2.60;;;28.50;99.90;;;;;;5052035;28;20717;-74
2021/06/07 11:02:45;;;;;;;5.10;2.90;;;26.70;99.90;;;;;;5051917;28;20301;-75
2021/06/07 11:05:15;;;;;;;6.05;2.85;;;27.30;99.90;;;;;;5051538;28;20188;-74
2021/06/07 11:07:45;;;;;;;3.08;2.20;;;27.80;99.90;;;;;;5051567;28;20193;-75
2021/06/07 11:10:26;;;;;;;2.58;1.98;;;28.60;99.90;;;;;;5051721;28;20228;-74
2021/06/07 11:12:57;;;;;;;4.72;2.08;;;29.40;99.90;;;;;;5034636;28;20212;-76
2021/06/07 11:15:34;;;;;;;4.97;2.10;;;29.20;99.90;;;;;;5034625;28;20197;-76
2021/06/07 11:18:37;;;;;;;2.35;2.10;;;28.90;99.90;;;;;;5051451;28;20623;-78
2021/06/07 11:21:30;;;;;;;2.30;1.95;;;28.60;99.90;;;;;;5050493;28;20204;-76
2021/06/07 11:23:59;;;;;;;3.58;1.98;;;29.20;99.90;;;;;;5051901;28;20263;-76
2021/06/07 11:26:41;;;;;;;3.83;2.20;;;28.40;99.90;;;;;;5047230;28;20208;-76
2021/06/07 11:29:14;;;;;;;4.72;2.17;;;28.20;99.90;;;;;;5049218;28;20283;-76
2021/06/07 11:31:46;;;;;;;3.25;2.10;;;28.20;99.90;;;;;;5052736;28;20247;-76
2021/06/07 11:34:21;;;;;;;2.97;2.22;;;29.20;99.90;;;;;;5052419;28;20192;-76
2021/06/07 11:36:59;;;;;;;3.13;2.60;;;29.20;99.90;;;;;;5048638;28;20223;-76
2021/06/07 11:39:29;;;;;;;5.35;2.05;;;28.50;99.90;;;;;;5032538;28;20227;-76
2021/06/07 11:42:07;;;;;;;5.00;3.17;;;28.40;99.90;;;;;;5029638;28;20670;-76
2021/06/07 11:44:53;;;;;;;3.20;2.90;;;27.90;99.90;;;;;;5032468;28;20542;-76
2021/06/07 11:47:27;;;;;;;4.00;3.13;;;27.50;99.90;;;;;;5051950;28;20235;-76
2021/06/07 11:50:14;;;;;;;2.65;2.45;;;28.10;99.90;;;;;;5055201;28;20192;-76
2021/06/07 11:52:51;;;;;;;5.13;2.70;;;29.30;99.90;;;;;;5054522;28;20238;-77
2021/06/07 11:55:22;;;;;;;5.80;2.22;;;29.80;99.90;;;;;;5054139;28;20238;-76
2021/06/07 11:57:51;;;;;;;4.38;2.63;;;28.90;99.90;;;;;;5053208;28;20275;-76
2021/06/07 12:00:23;;;;;;;5.38;3.33;;;28.40;99.90;;;;;;5054843;28;20192;-76
2021/06/07 12:02:53;;;;;;;3.08;2.40;;;27.90;99.90;;;;;;5054426;28;20180;-73
2021/06/07 12:05:24;;;;;;;3.00;2.70;;;29.30;99.90;;;;;;5054621;28;20203;-74
2021/06/07 12:07:51;;;;;;;3.92;2.90;;;29.20;99.90;;;;;;5055570;28;20192;-74
2021/06/07 12:10:19;;;;;;;2.80;2.50;;;29.80;99.90;;;;;;5053181;28;20646;-76
2021/06/07 12:12:47;;;;;;;3.83;2.50;;;29.80;99.90;;;;;;5051259;28;20650;-76
2021/06/07 12:15:17;;;;;;;4.65;2.22;;;30.50;99.90;;;;;;5055306;28;20201;-73
2021/06/07 12:17:46;;;;;;;4.72;2.50;;;30.70;99.90;;;;;;5054956;28;20333;-74
2021/06/07 12:20:22;;;;;;;3.65;2.35;;;30.40;99.90;;;;;;5055383;28;20238;-74
2021/06/07 12:22:56;;;;;;;2.97;2.33;;;29.30;99.90;;;;;;5055584;28;20634;-76
2021/06/07 12:25:42;;;;;;;4.60;2.80;;;29.00;99.90;;;;;;5054762;28;20200;-75
2021/06/07 12:28:19;;;;;;;4.60;2.42;;;28.60;99.90;;;;;;5035363;28;20197;-76
2021/06/07 12:30:47;;;;;;;5.15;1.92;;;28.70;99.90;;;;;;5035024;28;20243;-76
2021/06/07 12:33:24;;;;;;;4.43;2.72;;;28.60;99.90;;;;;;5034063;28;20221;-75
2021/06/07 12:36:08;;;;;;;2.60;2.40;;;27.90;99.90;;;;;;5052284;28;20299;-76
2021/06/07 12:38:40;;;;;;;2.17;1.98;;;27.50;99.90;;;;;;5051580;28;20626;-76
2021/06/07 12:41:17;;;;;;;2.63;2.08;;;27.40;99.90;;;;;;5050761;28;20674;-74
2021/06/07 12:43:45;;;;;;;3.17;2.03;;;27.50;99.90;;;;;;5053369;28;20180;-74
2021/06/07 12:46:12;;;;;;;2.95;2.60;;;27.20;99.90;;;;;;5053582;28;20275;-74
2021/06/07 12:48:41;;;;;;;3.17;2.70;;;26.30;99.90;;;;;;5051252;28;20240;-74
2021/06/07 12:51:13;;;;;;;3.90;2.30;;;26.20;99.90;;;;;;5053502;28;20189;-74
2021/06/07 12:53:45;;;;;;;2.63;2.42;;;26.90;99.90;;;;;;5051679;28;20517;-75
2021/06/07 12:56:18;;;;;;;4.22;2.67;;;26.80;99.90;;;;;;5051792;28;20599;-74
2021/06/07 12:58:49;;;;;;;2.97;2.33;;;27.50;99.90;;;;;;5052201;28;20191;-74